Time;durP1;ratioP1;P1;durP2;ratioP2;P2;SDS_P1;SDS_P2;PMS_P1;PMS_P2;Temp;Humidity;BMP_temperature;BMP_pressure;BME280_temperature;BME280_humidity;BME280_pressure;Samples;Min_cycle;Max_cycle;Signal;HPM_P1;HPM_P2
2023/07/21 09:31:50;;;;;;;10.55;9.52;;;29.60;99.90;;;;;;5265307;28;20482;-69
2023/07/21 09:34:21;;;;;;;10.30;9.25;;;30.50;99.90;;;;;;5264422;28;20032;-69
2023/07/21 09:36:52;;;;;;;11.65;8.65;;;30.70;99.90;;;;;;5265144;28;20028;-68
2023/07/21 09:39:23;;;;;;;11.65;8.38;;;30.90;99.90;;;;;;5264957;28;20345;-68
2023/07/21 09:41:53;;;;;;;12.05;7.97;;;30.70;99.90;;;;;;5263875;28;20443;-69
2023/07/21 09:44:25;;;;;;;11.40;8.75;;;30.80;99.90;;;;;;5264991;28;20048;-68
2023/07/21 09:46:56;;;;;;;12.98;8.27;;;30.70;99.90;;;;;;5264887;28;20020;-69
2023/07/21 09:49:27;;;;;;;11.38;8.18;;;31.00;99.90;;;;;;5264610;28;20514;-69
2023/07/21 09:52:00;;;;;;;11.15;8.30;;;31.00;99.90;;;;;;5263918;28;20031;-67
2023/07/21 09:54:34;;;;;;;9.90;8.70;;;31.20;99.90;;;;;;5264310;28;20028;-69
2023/07/21 09:57:06;;;;;;;9.13;8.07;;;31.20;99.90;;;;;;5263382;28;20115;-68
2023/07/21 09:59:43;;;;;;;9.85;7.68;;;31.10;99.90;;;;;;5264411;28;20068;-68
2023/07/21 10:02:15;;;;;;;8.23;7.35;;;31.20;99.90;;;;;;5264595;28;20040;-67
2023/07/21 10:04:46;;;;;;;11.57;7.07;;;31.00;99.90;;;;;;5264592;28;20055;-68
2023/07/21 10:07:17;;;;;;;8.68;7.63;;;30.90;99.90;;;;;;5264426;28;20475;-69
2023/07/21 10:09:49;;;;;;;11.02;7.00;;;31.00;99.90;;;;;;5264594;28;20028;-68
2023/07/21 10:12:20;;;;;;;12.60;7.50;;;30.80;99.90;;;;;;5264164;28;20032;-67
2023/07/21 10:14:51;;;;;;;8.73;7.25;;;31.10;99.90;;;;;;5264367;28;20086;-69
2023/07/21 10:17:24;;;;;;;12.20;6.78;;;31.10;99.90;;;;;;5262461;28;20111;-67
2023/07/21 10:20:08;;;;;;;10.48;6.55;;;31.00;99.90;;;;;;5263701;28;20021;-69
2023/07/21 10:22:39;;;;;;;10.13;6.50;;;30.50;99.90;;;;;;5263835;28;20025;-67
2023/07/21 10:25:10;;;;;;;11.65;8.07;;;30.70;99.90;;;;;;5263785;28;20046;-67
2023/07/21 10:27:41;;;;;;;10.90;7.45;;;31.00;99.90;;;;;;5261079;28;20372;-69
2023/07/21 10:30:20;;;;;;;9.40;6.97;;;31.30;99.90;;;;;;5263766;28;20059;-68
2023/07/21 10:32:52;;;;;;;10.90;6.32;;;31.00;99.90;;;;;;5263972;28;20036;-68
2023/07/21 10:35:39;;;;;;;11.48;7.05;;;30.60;99.90;;;;;;5263702;28;20092;-67
2023/07/21 10:38:13;;;;;;;8.88;6.65;;;30.80;99.90;;;;;;5260613;28;20032;-68
2023/07/21 10:40:45;;;;;;;7.97;5.80;;;30.90;99.90;;;;;;5263652;28;20063;-67
2023/07/21 10:43:16;;;;;;;11.73;6.75;;;31.00;99.90;;;;;;5245067;28;20028;-68
2023/07/21 10:45:53;;;;;;;7.70;6.45;;;31.10;99.90;;;;;;5249685;28;20021;-67
2023/07/21 10:48:25;;;;;;;8.70;6.13;;;31.00;99.90;;;;;;5249601;28;20029;-67
2023/07/21 10:50:58;;;;;;;7.43;5.70;;;30.50;99.90;;;;;;5248853;28;20254;-67
2023/07/21 10:53:29;;;;;;;9.30;6.68;;;30.60;99.90;;;;;;5249664;28;20117;-67
2023/07/21 10:56:07;;;;;;;10.98;6.32;;;30.60;99.90;;;;;;5249620;28;20025;-67
2023/07/21 10:58:38;;;;;;;9.95;5.75;;;30.30;99.90;;;;;;5249372;28;20032;-68
2023/07/21 11:01:09;;;;;;;9.90;6.75;;;30.10;99.90;;;;;;5249565;28;20043;-68
2023/07/21 11:03:43;;;;;;;7.40;6.53;;;30.20;99.90;;;;;;5249273;28;20032;-67
2023/07/21 11:06:14;;;;;;;9.23;6.05;;;30.70;99.90;;;;;;5249451;28;20044;-67
2023/07/21 11:08:45;;;;;;;9.27;6.13;;;30.90;99.90;;;;;;5249254;28;20434;-68
2023/07/21 11:11:16;;;;;;;8.43;5.78;;;31.10;99.90;;;;;;5242130;28;20037;-69
2023/07/21 11:13:47;;;;;;;8.23;6.72;;;31.40;99.90;;;;;;5238303;28;20072;-68
2023/07/21 11:16:18;;;;;;;8.13;6.00;;;31.30;99.90;;;;;;5238299;28;20057;-67
2023/07/21 11:18:49;;;;;;;9.93;6.55;;;30.70;99.90;;;;;;5238141;28;20049;-68
2023/07/21 11:21:20;;;;;;;10.10;6.38;;;31.30;99.90;;;;;;5238806;28;20021;-68
2023/07/21 11:24:03;;;;;;;8.73;6.22;;;31.00;99.90;;;;;;5237882;28;20078;-68
2023/07/21 11:26:38;;;;;;;10.10;6.18;;;30.70;99.90;;;;;;5240073;28;20045;-68
2023/07/21 11:29:09;;;;;;;9.00;6.68;;;30.60;99.90;;;;;;5237257;28;20020;-69
2023/07/21 11:31:40;;;;;;;9.45;6.30;;;30.90;99.90;;;;;;5239855;28;20079;-67
2023/07/21 11:34:25;;;;;;;8.35;6.25;;;30.70;99.90;;;;;;5239238;28;20398;-68
2023/07/21 11:37:00;;;;;;;9.35;6.22;;;30.60;99.90;;;;;;5238372;28;20488;-69
2023/07/21 11:39:31;;;;;;;9.93;5.82;;;30.60;99.90;;;;;;5244721;28;20020;-69
2023/07/21 11:42:02;;;;;;;9.20;6.18;;;30.90;99.90;;;;;;5234270;28;20031;-69
2023/07/21 11:44:35;;;;;;;11.65;6.40;;;31.00;99.90;;;;;;5239265;28;20472;-68
2023/07/21 11:47:11;;;;;;;11.43;6.00;;;31.30;99.90;;;;;;5237642;28;20025;-69
2023/07/21 11:49:53;;;;;;;12.40;6.15;;;31.10;99.90;;;;;;5238917;28;20044;-69
2023/07/21 11:52:26;;;;;;;10.57;6.15;;;31.10;99.90;;;;;;5235122;28;20031;-68
2023/07/21 11:55:00;;;;;;;8.65;5.75;;;30.60;99.90;;;;;;5240880;28;20060;-68
2023/07/21 11:57:32;;;;;;;12.38;6.68;;;30.90;99.90;;;;;;5247750;28;20150;-67
2023/07/21 12:00:11;;;;;;;8.02;6.30;;;30.80;99.90;;;;;;5242595;28;20029;-67
2023/07/21 12:02:42;;;;;;;9.00;6.40;;;31.00;99.90;;;;;;5238822;28;20105;-69
2023/07/21 12:05:13;;;;;;;10.07;6.18;;;30.50;99.90;;;;;;5241605;28;20084;-68
2023/07/21 12:07:47;;;;;;;6.47;5.78;;;30.40;99.90;;;;;;5238911;28;20012;-68
2023/07/21 12:10:27;;;;;;;10.00;6.18;;;30.80;99.90;;;;;;5239024;28;20037;-68
2023/07/21 12:12:58;;;;;;;8.75;5.93;;;31.10;99.90;;;;;;5238441;28;20503;-67
2023/07/21 12:15:29;;;;;;;7.05;5.97;;;30.80;99.90;;;;;;5244570;28;20036;-68
2023/07/21 12:18:00;;;;;;;7.13;6.15;;;31.10;99.90;;;;;;5265226;28;20023;-68
2023/07/21 12:20:31;;;;;;;9.00;5.70;;;30.70;99.90;;;;;;5248130;28;20484;-68
2023/07/21 12:23:01;;;;;;;10.85;5.55;;;30.60;99.90;;;;;;5243510;28;20032;-68
2023/07/21 12:25:34;;;;;;;7.93;5.80;;;31.00;99.90;;;;;;5239419;28;20105;-66
2023/07/21 12:28:04;;;;;;;7.78;5.35;;;30.90;99.90;;;;;;5237335;28;20020;-65
2023/07/21 12:30:35;;;;;;;10.18;4.88;;;31.00;99.90;;;;;;5237203;28;20057;-67
2023/07/21 12:33:06;;;;;;;7.38;5.05;;;31.30;99.90;;;;;;5240073;28;20048;-65
2023/07/21 12:35:37;;;;;;;8.00;5.10;;;31.20;99.90;;;;;;5235188;28;20430;-66
2023/07/21 12:38:08;;;;;;;8.98;4.82;;;30.60;99.90;;;;;;5238931;28;20017;-66
2023/07/21 12:40:39;;;;;;;8.18;5.35;;;30.60;99.90;;;;;;5238425;28;20013;-66
2023/07/21 12:43:10;;;;;;;11.60;5.03;;;30.90;99.90;;;;;;5238572;28;20045;-66
2023/07/21 12:45:41;;;;;;;6.88;5.00;;;30.80;99.90;;;;;;5239902;28;20100;-67
2023/07/21 12:48:11;;;;;;;8.30;5.30;;;31.10;99.90;;;;;;5239434;28;20031;-66
2023/07/21 12:50:42;;;;;;;7.40;4.65;;;31.30;99.90;;;;;;5235648;28;20037;-67
2023/07/21 12:53:13;;;;;;;8.43;4.85;;;31.10;99.90;;;;;;5238582;28;20040;-66
2023/07/21 12:55:45;;;;;;;6.78;4.95;;;31.30;99.90;;;;;;5234971;28;20570;-65
2023/07/21 12:58:17;;;;;;;6.60;4.32;;;31.20;99.90;;;;;;5237108;28;20024;-66
2023/07/21 13:00:48;;;;;;;10.05;5.03;;;31.40;99.90;;;;;;5241562;28;20035;-67
2023/07/21 13:03:19;;;;;;;9.73;5.20;;;31.40;99.90;;;;;;5235871;28;20524;-66
2023/07/21 13:05:50;;;;;;;9.20;4.93;;;31.40;99.90;;;;;;5234237;28;20082;-66
2023/07/21 13:08:21;;;;;;;12.40;5.00;;;31.50;99.90;;;;;;5235227;28;20021;-67
2023/07/21 13:10:52;;;;;;;8.57;5.05;;;31.00;99.90;;;;;;5240728;28;20043;-66
2023/07/21 13:13:23;;;;;;;8.48;5.53;;;31.20;99.90;;;;;;5246924;28;20032;-66
2023/07/21 13:15:54;;;;;;;9.65;5.80;;;31.00;99.90;;;;;;5253082;28;20024;-66
2023/07/21 13:18:24;;;;;;;7.70;5.00;;;31.00;99.90;;;;;;5268279;28;20024;-66
2023/07/21 13:20:55;;;;;;;8.93;5.18;;;31.10;99.90;;;;;;5247390;28;20028;-66
2023/07/21 13:23:26;;;;;;;7.97;5.15;;;31.20;99.90;;;;;;5247003;28;20040;-66
2023/07/21 13:25:57;;;;;;;9.27;5.65;;;31.00;99.90;;;;;;5245773;28;20497;-65
2023/07/21 13:28:28;;;;;;;10.23;5.82;;;30.70;99.90;;;;;;5247072;28;20036;-65
2023/07/21 13:31:00;;;;;;;9.32;5.38;;;30.90;99.90;;;;;;5246656;28;20044;-66
2023/07/21 13:33:30;;;;;;;7.60;5.00;;;30.60;99.90;;;;;;5246823;28;20111;-67
2023/07/21 13:36:02;;;;;;;9.00;5.78;;;31.10;99.90;;;;;;5246500;28;20020;-65
2023/07/21 13:38:34;;;;;;;9.27;5.57;;;30.90;99.90;;;;;;5241239;28;20467;-67
2023/07/21 13:41:04;;;;;;;7.38;4.85;;;31.00;99.90;;;;;;5246412;28;20572;-68
2023/07/21 13:43:36;;;;;;;5.30;4.78;;;31.10;99.90;;;;;;5234699;28;20132;-67
2023/07/21 13:46:07;;;;;;;5.70;4.80;;;31.00;99.90;;;;;;5251820;28;20375;-67
2023/07/21 13:48:38;;;;;;;10.05;4.60;;;30.80;99.90;;;;;;5246564;28;20093;-67
2023/07/21 13:51:08;;;;;;;8.80;5.22;;;30.40;99.90;;;;;;5246268;28;20033;-67
2023/07/21 13:53:39;;;;;;;7.65;5.10;;;30.60;99.90;;;;;;5246564;28;20028;-66
2023/07/21 13:56:10;;;;;;;7.13;5.32;;;30.80;99.90;;;;;;5237184;28;20021;-68
2023/07/21 13:58:42;;;;;;;7.25;5.38;;;31.10;99.90;;;;;;5246474;28;20028;-68
2023/07/21 14:01:12;;;;;;;7.07;5.65;;;30.90;99.90;;;;;;5246577;28;20507;-66
2023/07/21 14:03:45;;;;;;;7.60;4.68;;;30.70;99.90;;;;;;5245218;28;20090;-67
2023/07/21 14:06:16;;;;;;;6.07;5.40;;;30.50;99.90;;;;;;5246551;28;20510;-67
2023/07/21 14:08:47;;;;;;;6.55;5.82;;;30.40;99.90;;;;;;5246454;28;20028;-68
2023/07/21 14:11:18;;;;;;;8.43;5.35;;;30.30;99.90;;;;;;5246285;28;20039;-67
2023/07/21 14:13:49;;;;;;;5.68;5.18;;;30.40;99.90;;;;;;5246392;28;20391;-67
2023/07/21 14:16:19;;;;;;;7.85;5.50;;;30.30;99.90;;;;;;5246757;28;20055;-68
2023/07/21 14:18:51;;;;;;;7.10;5.47;;;30.30;99.90;;;;;;5249866;28;20432;-67
2023/07/21 14:21:22;;;;;;;11.50;6.13;;;30.10;99.90;;;;;;5250069;28;20043;-66
2023/07/21 14:23:54;;;;;;;13.88;7.85;;;30.20;99.90;;;;;;5248780;28;20490;-66
2023/07/21 14:26:25;;;;;;;7.50;5.82;;;30.30;99.90;;;;;;5250077;28;20039;-66
2023/07/21 14:28:56;;;;;;;10.95;6.43;;;30.50;99.90;;;;;;5249829;28;20131;-67
2023/07/21 14:31:27;;;;;;;6.90;5.68;;;30.10;99.90;;;;;;5249158;28;20551;-66
2023/07/21 14:33:58;;;;;;;7.53;5.88;;;30.10;99.90;;;;;;5250268;28;20376;-69
2023/07/21 14:36:28;;;;;;;6.10;5.60;;;30.00;99.90;;;;;;5250272;28;20352;-66
2023/07/21 14:38:59;;;;;;;8.30;5.28;;;29.90;99.90;;;;;;5250369;28;20490;-66
2023/07/21 14:41:32;;;;;;;8.05;5.53;;;30.30;99.90;;;;;;5249854;28;20356;-68
2023/07/21 14:44:02;;;;;;;6.13;5.32;;;30.20;99.90;;;;;;5242873;28;20598;-67
2023/07/21 14:46:33;;;;;;;6.55;5.50;;;30.20;99.90;;;;;;5249689;28;20134;-67
2023/07/21 14:49:05;;;;;;;8.85;6.18;;;30.00;99.90;;;;;;5249732;28;20025;-67
2023/07/21 14:51:38;;;;;;;7.72;5.30;;;29.70;99.90;;;;;;5247811;28;20040;-67
2023/07/21 14:54:08;;;;;;;8.88;5.40;;;29.80;99.90;;;;;;5246502;28;20021;-67
2023/07/21 14:56:40;;;;;;;7.90;6.55;;;29.90;99.90;;;;;;5249730;28;20051;-67
2023/07/21 14:59:10;;;;;;;7.53;5.78;;;29.60;99.90;;;;;;5249826;28;20024;-67
2023/07/21 15:01:42;;;;;;;8.00;5.72;;;29.70;99.90;;;;;;5249275;28;20602;-67
2023/07/21 15:04:12;;;;;;;6.97;5.40;;;29.50;99.90;;;;;;5249627;28;20086;-67
2023/07/21 15:06:43;;;;;;;10.10;5.45;;;29.90;99.90;;;;;;5249499;28;20036;-67
2023/07/21 15:09:14;;;;;;;7.03;5.22;;;29.80;99.90;;;;;;5249430;28;20504;-68
2023/07/21 15:11:45;;;;;;;7.18;5.70;;;29.50;99.90;;;;;;5249238;28;20376;-68
2023/07/21 15:14:16;;;;;;;22.35;12.05;;;29.30;99.90;;;;;;5249307;28;20115;-68
2023/07/21 15:16:51;;;;;;;12.43;9.73;;;29.10;99.90;;;;;;5259346;28;20035;-67
2023/07/21 15:19:25;;;;;;;13.73;9.90;;;29.10;99.90;;;;;;5231775;28;20070;-67
2023/07/21 15:21:58;;;;;;;8.90;7.38;;;29.30;99.90;;;;;;5234231;28;20116;-66
2023/07/21 15:24:29;;;;;;;12.73;11.50;;;29.10;99.90;;;;;;5238550;28;20047;-66
2023/07/21 15:27:01;;;;;;;14.50;9.77;;;29.20;99.90;;;;;;5249171;28;20555;-66
2023/07/21 15:29:31;;;;;;;10.30;6.88;;;29.30;99.90;;;;;;5248408;28;21082;-66
2023/07/21 15:32:02;;;;;;;10.00;6.82;;;29.40;99.90;;;;;;5249271;28;20467;-66
2023/07/21 15:34:33;;;;;;;9.05;7.35;;;29.60;99.90;;;;;;5248779;28;20425;-67
2023/07/21 15:37:04;;;;;;;7.40;6.57;;;29.20;99.90;;;;;;5248939;28;20028;-66
2023/07/21 15:39:36;;;;;;;9.90;7.93;;;29.00;99.90;;;;;;5241960;28;20033;-67
2023/07/21 15:42:07;;;;;;;29.20;22.98;;;28.80;99.90;;;;;;5242197;28;20108;-66
2023/07/21 15:44:38;;;;;;;77.47;70.38;;;28.70;99.90;;;;;;5244386;28;20111;-66
2023/07/21 15:47:08;;;;;;;21.75;16.45;;;28.80;99.90;;;;;;5248420;28;20032;-67
2023/07/21 15:49:45;;;;;;;14.32;12.15;;;28.90;99.90;;;;;;5247024;28;20683;-65
2023/07/21 15:52:16;;;;;;;14.05;10.32;;;29.10;99.90;;;;;;5248510;28;20036;-67
2023/07/21 15:54:50;;;;;;;10.85;9.63;;;29.00;99.90;;;;;;5248532;28;20044;-67
2023/07/21 15:57:21;;;;;;;10.82;7.20;;;29.00;99.90;;;;;;5248757;28;20029;-66
2023/07/21 15:59:51;;;;;;;12.70;9.25;;;28.80;99.90;;;;;;5247539;28;20043;-66
2023/07/21 16:02:22;;;;;;;18.08;16.20;;;28.80;99.90;;;;;;5248503;28;20477;-66
2023/07/21 16:04:53;;;;;;;8.93;7.43;;;28.80;99.90;;;;;;5248340;28;20381;-66
2023/07/21 16:07:24;;;;;;;18.58;15.57;;;28.90;99.90;;;;;;5248031;28;20016;-66
2023/07/21 16:09:55;;;;;;;14.23;10.52;;;28.80;99.90;;;;;;5247923;28;20068;-66
2023/07/21 16:12:26;;;;;;;9.95;8.95;;;28.90;99.90;;;;;;5246855;28;20062;-67
2023/07/21 16:14:57;;;;;;;31.15;26.05;;;28.50;99.90;;;;;;5246921;28;20039;-67
2023/07/21 16:17:28;;;;;;;10.70;7.65;;;28.50;99.90;;;;;;5248215;28;20029;-66
2023/07/21 16:20:06;;;;;;;9.52;6.20;;;28.40;99.90;;;;;;5247631;28;20073;-67
2023/07/21 16:22:38;;;;;;;8.45;6.30;;;28.20;99.90;;;;;;5247885;28;20017;-66
2023/07/21 16:25:09;;;;;;;9.77;7.43;;;28.10;99.90;;;;;;5246332;28;20578;-65
2023/07/21 16:27:40;;;;;;;11.38;7.57;;;27.90;99.90;;;;;;5247411;28;20352;-66
2023/07/21 16:30:11;;;;;;;40.65;12.50;;;27.80;99.90;;;;;;5247478;28;20053;-66
2023/07/21 16:32:42;;;;;;;56.65;13.40;;;27.50;99.90;;;;;;5247494;28;20016;-67
2023/07/21 16:35:13;;;;;;;28.48;10.93;;;27.50;99.90;;;;;;5247612;28;20043;-65
2023/07/21 16:37:43;;;;;;;10.18;7.35;;;27.50;99.90;;;;;;5247511;28;20118;-65
2023/07/21 16:40:16;;;;;;;9.10;8.00;;;27.40;99.90;;;;;;5246931;28;20095;-65
2023/07/21 16:42:47;;;;;;;9.80;7.65;;;27.30;99.90;;;;;;5247402;28;20027;-66
2023/07/21 16:45:17;;;;;;;11.27;8.18;;;27.30;99.90;;;;;;5248127;28;20016;-66
2023/07/21 16:47:48;;;;;;;10.07;7.90;;;27.30;99.90;;;;;;5250470;28;20383;-67
2023/07/21 16:50:19;;;;;;;8.77;7.22;;;27.10;99.90;;;;;;5247223;28;20050;-67
2023/07/21 16:52:50;;;;;;;9.52;7.57;;;27.20;99.90;;;;;;5247288;28;20031;-65
2023/07/21 16:55:21;;;;;;;9.13;6.07;;;27.20;99.90;;;;;;5247087;28;20377;-67
2023/07/21 16:57:52;;;;;;;10.02;6.50;;;27.00;99.90;;;;;;5246247;28;20036;-66
2023/07/21 17:00:23;;;;;;;7.60;6.55;;;27.10;99.90;;;;;;5246996;28;20024;-65
2023/07/21 17:02:54;;;;;;;9.43;7.68;;;27.10;99.90;;;;;;5247020;28;20472;-66
2023/07/21 17:05:27;;;;;;;10.48;9.35;;;27.30;99.90;;;;;;5246876;28;20103;-65
2023/07/21 17:07:57;;;;;;;10.35;9.32;;;27.30;99.90;;;;;;5247185;28;20031;-67
2023/07/21 17:10:29;;;;;;;11.68;10.30;;;27.20;99.90;;;;;;5246962;28;20480;-66
2023/07/21 17:13:00;;;;;;;12.23;10.98;;;27.10;99.90;;;;;;5247066;28;20027;-66
2023/07/21 17:15:31;;;;;;;11.25;9.68;;;26.90;99.90;;;;;;5246131;28;20025;-66
2023/07/21 17:18:02;;;;;;;10.95;10.05;;;27.00;99.90;;;;;;5247094;28;20063;-67
2023/07/21 17:20:33;;;;;;;10.57;9.48;;;27.10;99.90;;;;;;5247244;28;20058;-66
2023/07/21 17:23:04;;;;;;;15.32;10.02;;;27.10;99.90;;;;;;5245762;28;20048;-67
2023/07/21 17:25:35;;;;;;;12.50;9.43;;;27.10;99.90;;;;;;5247125;28;20037;-66
2023/07/21 17:28:06;;;;;;;11.75;10.15;;;27.00;99.90;;;;;;5246813;28;20048;-68
2023/07/21 17:30:37;;;;;;;11.02;9.88;;;27.10;99.90;;;;;;5246590;28;20060;-69
2023/07/21 17:33:08;;;;;;;12.35;10.00;;;26.90;99.90;;;;;;5245623;28;20159;-68
2023/07/21 17:35:43;;;;;;;10.90;8.68;;;26.80;99.90;;;;;;5246055;28;20029;-68
2023/07/21 17:38:13;;;;;;;10.98;8.77;;;26.80;99.90;;;;;;5246809;28;20352;-67
2023/07/21 17:40:44;;;;;;;13.93;9.07;;;26.70;99.90;;;;;;5246662;28;20028;-68
2023/07/21 17:43:15;;;;;;;12.13;9.82;;;26.70;99.90;;;;;;5246792;28;20025;-68
2023/07/21 17:45:46;;;;;;;9.27;8.27;;;26.60;99.90;;;;;;5246710;28;20372;-68
2023/07/21 17:48:17;;;;;;;9.85;8.95;;;26.70;99.90;;;;;;5246600;28;20031;-67
2023/07/21 17:50:48;;;;;;;10.82;9.70;;;26.60;99.90;;;;;;5246621;28;20029;-67
2023/07/21 17:53:19;;;;;;;12.55;9.38;;;26.60;99.90;;;;;;5249466;28;20375;-67
2023/07/21 17:55:50;;;;;;;12.02;10.27;;;26.50;99.90;;;;;;5250645;28;20021;-67
2023/07/21 17:58:23;;;;;;;15.52;10.57;;;26.60;99.90;;;;;;5250905;28;20031;-67
2023/07/21 18:00:54;;;;;;;15.27;10.18;;;26.60;99.90;;;;;;5250469;28;20031;-66
2023/07/21 18:03:24;;;;;;;19.95;11.10;;;26.40;99.90;;;;;;5250512;28;20436;-67
2023/07/21 18:05:57;;;;;;;12.90;9.35;;;26.40;99.90;;;;;;5250556;28;20805;-66
2023/07/21 18:08:28;;;;;;;10.07;9.07;;;26.20;99.90;;;;;;5250553;28;20078;-67
2023/07/21 18:10:58;;;;;;;10.07;9.05;;;26.20;99.90;;;;;;5250429;28;20032;-67
2023/07/21 18:13:29;;;;;;;13.20;8.48;;;26.00;99.90;;;;;;5250529;28;20029;-66
